Portada
METAR-TAF:

METAR-TAF

Aeropuertos :

Marshall, Misuri, Estados Unidos

latitud: 39-05-44N, longitud: 093-12-10W, altitud: 237 m

Observación

El informe se hizo hace 15 minutos, a las 08:15 UTC
Viento 3 kt del este
Temperatura 20°C
Humedad 100%
Presión 1015 hPa
Visibilidad: 6.4 km
Cielo despejado

METAR: KMHL 060815Z AUTO 08003KT 4SM CLR 20/20 A2998 RMK AO2 PWINO

Hora: 03:30 (08:30 UTC)


TAF: falta

Observaciones y pronósticos meteorológicos de más de 4000 aeropuertos (mensajes METAR y TAF).

Los puntos amarillos y rojos representan las estaciones disponibles.

Ponga el ratón en el punto deseado para ver el nombre de la estación.

Haga clic para ver las observaciones y los pronósticos meteorológicos.

Para cambiar el mapa : haga clic en los botones verdes con una cruz de color negro para hacer un zoom, en el botón verde con un guión para alejar o en las flechas verdes para mapas adyacentes.


METAR-TAF: